createdAt,value
2018-05-10T00:01:21.728Z,18.18
2018-05-10T00:03:48.628Z,18.13
2018-05-10T00:06:14.554Z,18.06
2018-05-10T00:08:43.489Z,18.06
2018-05-10T00:11:09.468Z,18.00
2018-05-10T00:13:38.359Z,17.98
2018-05-10T00:16:04.348Z,18.00
2018-05-10T00:18:30.293Z,18.11
2018-05-10T00:20:56.274Z,18.15
2018-05-10T00:23:22.212Z,18.17
2018-05-10T00:25:49.784Z,18.13
2018-05-10T00:28:15.761Z,17.99
2018-05-10T00:30:44.853Z,18.03
2018-05-10T00:33:10.801Z,18.02
2018-05-10T00:35:39.612Z,18.17
2018-05-10T00:38:06.919Z,18.20
2018-05-10T00:40:34.294Z,18.23
2018-05-10T00:43:00.240Z,18.27
2018-05-10T00:45:30.014Z,18.37
2018-05-10T00:47:55.958Z,18.40
2018-05-10T00:50:23.888Z,18.33
2018-05-10T00:52:49.870Z,18.11
2018-05-10T00:55:15.844Z,17.96
2018-05-10T00:57:41.757Z,17.87
2018-05-10T01:00:07.697Z,17.70
2018-05-10T01:02:35.312Z,17.73
2018-05-10T01:05:01.213Z,17.78
2018-05-10T01:07:31.173Z,17.76
2018-05-10T01:09:57.092Z,17.79
2018-05-10T01:12:26.148Z,17.80
2018-05-10T01:14:52.595Z,17.85
2018-05-10T01:17:20.144Z,17.91
2018-05-10T01:19:46.102Z,18.12
2018-05-10T01:22:15.123Z,18.10
2018-05-10T01:24:44.630Z,17.98
2018-05-10T01:27:10.624Z,17.69
2018-05-10T01:29:36.570Z,18.06
2018-05-10T01:32:02.519Z,18.08
2018-05-10T01:34:28.458Z,18.14
2018-05-10T01:36:54.423Z,18.28
2018-05-10T01:39:20.359Z,18.12
2018-05-10T01:41:46.275Z,17.84
2018-05-10T01:44:15.225Z,17.51
2018-05-10T01:46:41.154Z,17.55
2018-05-10T01:49:11.381Z,17.10
2018-05-10T01:51:37.327Z,16.86
2018-05-10T01:54:06.405Z,17.01
2018-05-10T01:56:32.332Z,17.02
2018-05-10T01:58:59.528Z,16.97
2018-05-10T02:01:25.480Z,17.08
2018-05-10T02:03:54.645Z,17.14
2018-05-10T02:06:20.598Z,17.06
2018-05-10T02:08:46.548Z,17.12
2018-05-10T02:11:12.441Z,17.10
2018-05-10T02:13:38.356Z,17.11
2018-05-10T02:16:05.684Z,17.09
2018-05-10T02:18:31.590Z,17.03
2018-05-10T02:21:00.878Z,17.02
2018-05-10T02:23:26.802Z,16.99
2018-05-10T02:25:55.759Z,16.89
2018-05-10T02:28:21.716Z,16.86
2018-05-10T02:30:51.321Z,16.81
2018-05-10T02:33:17.241Z,16.86
2018-05-10T02:35:46.272Z,16.95
2018-05-10T02:38:12.277Z,16.98
2018-05-10T02:40:40.024Z,16.91
2018-05-10T02:43:05.991Z,16.89
2018-05-10T02:45:31.923Z,16.88
2018-05-10T02:47:57.883Z,16.84
2018-05-10T02:50:23.803Z,16.90
2018-05-10T02:52:50.973Z,16.88
2018-05-10T02:55:16.936Z,16.80
2018-05-10T02:57:45.860Z,16.76
2018-05-10T03:00:11.783Z,16.55
2018-05-10T03:02:40.768Z,16.63
2018-05-10T03:05:06.686Z,16.74
2018-05-10T03:07:35.644Z,16.78
2018-05-10T03:10:01.574Z,16.85
2018-05-10T03:12:30.493Z,16.81
2018-05-10T03:15:00.843Z,16.63
2018-05-10T03:17:26.793Z,16.27
2018-05-10T03:19:52.723Z,16.27
2018-05-10T03:22:18.651Z,16.22
2018-05-10T03:24:44.590Z,16.23
2018-05-10T03:27:10.507Z,16.09
2018-05-10T03:29:36.416Z,16.08
2018-05-10T03:32:02.396Z,16.10
2018-05-10T03:34:31.729Z,15.94
2018-05-10T03:36:57.711Z,15.91
2018-05-10T03:39:27.524Z,16.16
2018-05-10T03:41:53.456Z,16.19
2018-05-10T03:44:20.526Z,16.27
2018-05-10T03:46:46.451Z,16.29
2018-05-10T03:49:16.344Z,16.21
2018-05-10T03:51:42.286Z,15.85
2018-05-10T03:54:11.500Z,15.77
2018-05-10T03:56:37.418Z,16.00
2018-05-10T03:59:03.334Z,15.85
2018-05-10T04:01:29.223Z,15.67
2018-05-10T04:04:07.365Z,15.56
2018-05-10T04:06:45.574Z,15.54
2018-05-10T04:09:23.935Z,15.72
2018-05-10T04:11:49.842Z,15.96
2018-05-10T04:14:15.777Z,16.03
2018-05-10T04:16:41.773Z,16.06
2018-05-10T04:19:07.672Z,16.12
2018-05-10T04:21:33.631Z,16.19
2018-05-10T04:23:59.538Z,16.20
2018-05-10T04:26:25.504Z,16.33
2018-05-10T04:28:51.450Z,16.29
2018-05-10T04:31:17.334Z,16.13
2018-05-10T04:33:43.731Z,16.18
2018-05-10T04:36:09.653Z,16.19
2018-05-10T04:38:35.603Z,16.16
2018-05-10T04:41:01.571Z,16.23
2018-05-10T04:43:27.562Z,16.21
2018-05-10T04:45:53.500Z,16.28
2018-05-10T04:48:19.448Z,16.16
2018-05-10T04:50:45.378Z,16.17
2018-05-10T04:53:11.308Z,15.89
2018-05-10T04:55:37.277Z,15.76
2018-05-10T04:58:03.242Z,15.59
2018-05-10T05:00:29.148Z,15.43
2018-05-10T05:02:55.079Z,15.38
2018-05-10T05:05:21.010Z,15.48
2018-05-10T05:07:46.952Z,15.53
2018-05-10T05:10:26.310Z,15.46
2018-05-10T05:12:52.240Z,15.42
2018-05-10T05:15:18.158Z,15.34
2018-05-10T05:17:44.153Z,15.25
2018-05-10T05:20:10.075Z,15.23
2018-05-10T05:22:36.034Z,15.28
2018-05-10T05:25:02.016Z,15.25
2018-05-10T05:27:27.992Z,15.35
2018-05-10T05:29:53.925Z,15.45
2018-05-10T05:32:19.870Z,15.57
2018-05-10T05:34:45.798Z,15.40
2018-05-10T05:37:11.796Z,15.09
2018-05-10T05:39:37.818Z,14.95
2018-05-10T05:42:03.741Z,14.77
2018-05-10T05:44:29.678Z,14.85
2018-05-10T05:46:55.622Z,14.67
2018-05-10T05:49:21.548Z,14.69
2018-05-10T05:51:47.529Z,14.66
2018-05-10T05:54:13.528Z,14.79
2018-05-10T05:56:39.436Z,14.89
2018-05-10T05:59:05.340Z,15.06
2018-05-10T06:01:32.852Z,14.90
2018-05-10T06:03:58.848Z,14.95
2018-05-10T06:06:28.678Z,15.00
2018-05-10T06:08:54.625Z,14.95
2018-05-10T06:11:22.518Z,14.82
2018-05-10T06:13:48.452Z,14.80
2018-05-10T06:16:16.847Z,14.66
2018-05-10T06:18:42.786Z,14.62
2018-05-10T06:21:12.841Z,14.47
2018-05-10T06:23:38.758Z,14.49
2018-05-10T06:26:04.660Z,14.65
2018-05-10T06:28:30.562Z,14.73
2018-05-10T06:30:56.474Z,14.89
2018-05-10T06:33:23.271Z,15.09
2018-05-10T06:35:49.184Z,15.30
2018-05-10T06:38:19.084Z,15.46
2018-05-10T06:40:45.039Z,15.26
2018-05-10T06:43:12.851Z,15.02
2018-05-10T06:45:38.824Z,14.93
2018-05-10T06:48:08.789Z,14.85
2018-05-10T06:50:34.800Z,14.82
2018-05-10T06:53:02.735Z,14.92
2018-05-10T06:55:28.939Z,14.97
2018-05-10T06:57:56.882Z,14.95
2018-05-10T07:00:22.950Z,15.02
2018-05-10T07:02:48.940Z,15.11
2018-05-10T07:05:14.987Z,15.08
2018-05-10T07:07:41.156Z,15.08
2018-05-10T07:10:09.150Z,14.99
2018-05-10T07:12:35.164Z,15.08
2018-05-10T07:15:03.256Z,15.25
2018-05-10T07:17:29.401Z,15.23
2018-05-10T07:19:59.126Z,15.27
2018-05-10T07:22:25.119Z,15.37
2018-05-10T07:24:52.886Z,15.44
2018-05-10T07:27:19.013Z,15.56
2018-05-10T07:29:48.429Z,15.83
2018-05-10T07:32:14.410Z,16.02
2018-05-10T07:34:43.504Z,15.99
2018-05-10T07:37:09.500Z,15.82
2018-05-10T07:39:35.586Z,15.83
2018-05-10T07:42:01.633Z,15.96
2018-05-10T07:44:27.581Z,15.98
2018-05-10T07:46:53.673Z,16.07
2018-05-10T07:49:19.733Z,16.11
2018-05-10T07:51:48.600Z,16.24
2018-05-10T07:54:14.592Z,16.40
2018-05-10T07:56:43.376Z,16.56
2018-05-10T07:59:09.309Z,16.34
2018-05-10T08:01:38.038Z,16.48
2018-05-10T08:04:04.136Z,16.59
2018-05-10T08:06:33.770Z,16.66
2018-05-10T08:08:59.768Z,16.90
2018-05-10T08:11:28.887Z,17.10
2018-05-10T08:13:54.783Z,17.21
2018-05-10T08:16:20.732Z,17.32
2018-05-10T08:18:46.838Z,17.34
2018-05-10T08:21:12.774Z,17.16
2018-05-10T08:23:46.954Z,17.13
2018-05-10T08:26:12.938Z,17.03
2018-05-10T08:28:38.900Z,17.16
2018-05-10T08:31:04.965Z,17.23
2018-05-10T08:33:30.894Z,17.30
2018-05-10T08:35:56.927Z,17.03
2018-05-10T08:38:22.999Z,16.77
2018-05-10T08:40:48.999Z,16.70
2018-05-10T08:43:18.726Z,16.75
2018-05-10T08:45:44.774Z,16.55
2018-05-10T08:48:12.791Z,16.48
2018-05-10T08:50:38.782Z,16.31
2018-05-10T08:53:04.744Z,16.07
2018-05-10T08:55:30.680Z,16.05
2018-05-10T08:57:56.788Z,16.02
2018-05-10T09:00:26.051Z,15.95
2018-05-10T09:02:51.995Z,16.02
2018-05-10T09:05:19.106Z,16.20
2018-05-10T09:07:45.051Z,16.24
2018-05-10T09:10:14.937Z,16.08
2018-05-10T09:12:40.899Z,16.36
2018-05-10T09:15:08.316Z,16.26
2018-05-10T09:17:35.286Z,16.18
2018-05-10T09:20:04.441Z,16.25
2018-05-10T09:22:30.580Z,16.32
2018-05-10T09:24:58.650Z,16.33
2018-05-10T09:27:24.716Z,16.38
2018-05-10T09:29:50.659Z,16.70
2018-05-10T09:32:16.606Z,16.82
2018-05-10T09:34:42.553Z,16.91
2018-05-10T09:37:09.867Z,17.04
2018-05-10T09:39:35.869Z,17.05
2018-05-10T09:42:04.751Z,17.01
2018-05-10T09:44:30.668Z,17.07
2018-05-10T09:46:59.718Z,17.16
2018-05-10T09:49:25.640Z,16.99
2018-05-10T09:51:55.566Z,16.93
2018-05-10T09:54:21.553Z,16.75
2018-05-10T09:56:48.509Z,16.71
2018-05-10T09:59:14.458Z,16.80
2018-05-10T10:01:43.300Z,16.79
2018-05-10T10:04:09.268Z,16.80
2018-05-10T10:06:35.206Z,16.81
2018-05-10T10:09:01.193Z,16.76
2018-05-10T10:11:27.107Z,16.65
2018-05-10T10:13:54.828Z,16.58
2018-05-10T10:16:20.794Z,16.46
2018-05-10T10:18:49.526Z,16.46
2018-05-10T10:21:15.433Z,16.49
2018-05-10T10:23:44.260Z,16.48
2018-05-10T10:26:10.202Z,16.44
2018-05-10T10:28:39.244Z,16.43
2018-05-10T10:31:05.195Z,16.41
2018-05-10T10:33:34.750Z,16.28
2018-05-10T10:36:00.735Z,16.25
2018-05-10T10:38:29.764Z,16.25
2018-05-10T10:40:59.404Z,16.27
2018-05-10T10:43:25.358Z,16.24
2018-05-10T10:45:51.323Z,16.20
2018-05-10T10:48:17.251Z,16.22
2018-05-10T10:50:43.202Z,16.22
2018-05-10T10:53:09.116Z,16.36
2018-05-10T10:55:35.084Z,16.43
2018-05-10T10:58:01.106Z,16.58
2018-05-10T11:00:29.823Z,16.65
2018-05-10T11:02:55.818Z,16.75
2018-05-10T11:05:25.362Z,16.98
2018-05-10T11:07:51.309Z,16.96
2018-05-10T11:10:20.271Z,17.05
2018-05-10T11:12:46.204Z,17.07
2018-05-10T11:15:15.284Z,16.84
2018-05-10T11:17:41.264Z,16.88
2018-05-10T11:20:07.201Z,16.83
2018-05-10T11:22:33.188Z,16.99
2018-05-10T11:24:59.131Z,17.03
2018-05-10T11:27:25.476Z,17.22
2018-05-10T11:29:51.385Z,17.29
2018-05-10T11:32:21.045Z,17.28
2018-05-10T11:34:46.980Z,17.16
2018-05-10T11:37:16.352Z,17.28
2018-05-10T11:39:42.294Z,17.39
2018-05-10T11:42:11.239Z,17.63
2018-05-10T11:44:37.189Z,17.97
2018-05-10T11:47:04.259Z,18.35
2018-05-10T11:49:30.192Z,18.45
2018-05-10T11:52:03.011Z,18.49
2018-05-10T11:54:28.950Z,18.42
2018-05-10T11:56:54.919Z,18.32
2018-05-10T11:59:20.830Z,18.32
2018-05-10T12:01:46.782Z,18.22
2018-05-10T12:04:12.732Z,18.23
2018-05-10T12:06:38.686Z,18.46
2018-05-10T12:09:06.277Z,18.53
2018-05-10T12:11:32.274Z,18.66
2018-05-10T12:14:01.950Z,18.82
2018-05-10T12:16:27.892Z,19.14
2018-05-10T12:18:55.646Z,19.27
2018-05-10T12:21:21.600Z,18.96
2018-05-10T12:23:51.372Z,18.97
2018-05-10T12:26:17.364Z,19.18
2018-05-10T12:28:45.123Z,19.47
2018-05-10T12:31:11.119Z,19.95
2018-05-10T12:33:37.035Z,20.01
2018-05-10T12:36:03.008Z,20.19
2018-05-10T12:38:28.907Z,20.52
2018-05-10T12:40:56.740Z,20.72
2018-05-10T12:43:22.734Z,20.25
2018-05-10T12:45:52.535Z,20.34
2018-05-10T12:48:18.500Z,20.21
2018-05-10T12:50:46.187Z,20.11
2018-05-10T12:53:12.090Z,19.83
2018-05-10T12:55:42.127Z,19.43
2018-05-10T12:58:08.103Z,19.34
2018-05-10T13:00:35.826Z,19.10
2018-05-10T13:03:01.733Z,18.55
2018-05-10T13:05:31.436Z,18.25
2018-05-10T13:07:57.400Z,17.89
2018-05-10T13:10:23.282Z,17.45
2018-05-10T13:12:49.219Z,17.36
2018-05-10T13:15:15.124Z,17.20
2018-05-10T13:17:41.797Z,16.94
2018-05-10T13:20:07.750Z,16.64
2018-05-10T13:22:37.653Z,16.41
2018-05-10T13:25:03.607Z,16.27
2018-05-10T13:27:31.403Z,16.32
2018-05-10T13:29:57.383Z,16.30
2018-05-10T13:32:26.323Z,16.32
2018-05-10T13:34:52.269Z,16.15
2018-05-10T13:37:21.436Z,16.02
2018-05-10T13:39:47.403Z,15.71
2018-05-10T13:42:16.376Z,15.71
2018-05-10T13:44:42.469Z,15.59
2018-05-10T13:47:08.424Z,15.47
2018-05-10T13:49:34.385Z,15.27
2018-05-10T13:52:00.328Z,15.39
2018-05-10T13:54:26.964Z,14.95
2018-05-10T13:56:52.899Z,14.62
2018-05-10T13:59:22.740Z,14.60
2018-05-10T14:01:48.699Z,14.62
2018-05-10T14:04:18.034Z,14.49
2018-05-10T14:06:43.976Z,14.25
2018-05-10T14:09:10.972Z,14.07
2018-05-10T14:11:36.953Z,14.04
2018-05-10T14:14:06.712Z,13.97
2018-05-10T14:16:32.656Z,14.10
2018-05-10T14:19:01.984Z,14.12
2018-05-10T14:21:27.908Z,14.21
2018-05-10T14:23:53.914Z,14.34
2018-05-10T14:26:19.911Z,14.27
2018-05-10T14:28:45.866Z,14.20
2018-05-10T14:31:11.947Z,14.05
2018-05-10T14:33:37.893Z,14.03
2018-05-10T14:36:06.853Z,13.98
2018-05-10T14:38:32.803Z,13.85
2018-05-10T14:41:02.296Z,13.89
2018-05-10T14:43:30.044Z,13.81
2018-05-10T14:45:56.512Z,13.74
2018-05-10T14:48:22.477Z,13.56
2018-05-10T14:50:51.314Z,13.53
2018-05-10T14:53:17.255Z,13.56
2018-05-10T14:55:46.111Z,13.44
2018-05-10T14:58:12.063Z,13.28
2018-05-10T15:00:37.960Z,13.26
2018-05-10T15:03:03.928Z,13.31
2018-05-10T15:05:31.690Z,13.38
2018-05-10T15:07:57.618Z,13.29
2018-05-10T15:10:23.520Z,13.28
2018-05-10T15:12:52.281Z,13.25
2018-05-10T15:15:18.246Z,13.24
2018-05-10T15:17:47.256Z,13.31
2018-05-10T15:20:13.176Z,13.24
2018-05-10T15:22:42.605Z,13.21
2018-05-10T15:25:08.511Z,13.23
2018-05-10T15:27:40.398Z,13.20
2018-05-10T15:31:34.199Z,13.26
2018-05-10T15:34:00.295Z,13.33
2018-05-10T15:36:26.245Z,13.25
2018-05-10T15:38:52.185Z,13.19
2018-05-10T15:41:18.139Z,13.16
2018-05-10T15:43:44.102Z,13.28
2018-05-10T15:46:10.034Z,13.36
2018-05-10T15:48:35.988Z,13.25
2018-05-10T15:51:01.991Z,13.32
2018-05-10T15:53:27.997Z,13.32
2018-05-10T15:55:53.958Z,13.31
2018-05-10T15:58:19.952Z,13.21
2018-05-10T16:00:45.897Z,13.29
2018-05-10T16:03:11.802Z,13.27
2018-05-10T16:05:37.732Z,13.34
2018-05-10T16:08:03.677Z,13.26
2018-05-10T16:10:29.622Z,13.27
2018-05-10T16:12:55.562Z,13.28
2018-05-10T16:15:22.907Z,13.27
2018-05-10T16:17:48.896Z,13.32
2018-05-10T16:20:17.829Z,13.30
2018-05-10T16:22:43.713Z,13.36
2018-05-10T16:25:13.092Z,13.39
2018-05-10T16:27:39.026Z,13.45
2018-05-10T16:30:06.225Z,13.48
2018-05-10T16:32:32.192Z,13.56
2018-05-10T16:34:58.167Z,13.54
2018-05-10T16:37:24.088Z,13.43
2018-05-10T16:39:50.055Z,13.34
2018-05-10T16:42:18.051Z,13.47
2018-05-10T16:44:43.989Z,13.38
2018-05-10T16:47:13.693Z,13.38
2018-05-10T16:49:39.628Z,13.41
2018-05-10T16:52:08.607Z,13.43
2018-05-10T16:54:34.528Z,13.50
2018-05-10T16:57:03.664Z,13.59
2018-05-10T16:59:29.573Z,13.57
2018-05-10T17:01:57.451Z,13.56
2018-05-10T17:04:23.385Z,13.57
2018-05-10T17:06:52.454Z,13.64
2018-05-10T17:09:18.410Z,13.65
2018-05-10T17:11:44.362Z,13.65
2018-05-10T17:14:10.322Z,13.60
2018-05-10T17:16:36.289Z,13.71
2018-05-10T17:19:03.577Z,13.85
2018-05-10T17:21:29.504Z,13.73
2018-05-10T17:23:59.208Z,13.74
2018-05-10T17:26:25.124Z,13.68
2018-05-10T17:28:54.587Z,13.68
2018-05-10T17:31:20.537Z,13.71
2018-05-10T17:33:49.681Z,13.66
2018-05-10T17:36:15.652Z,13.63
2018-05-10T17:38:42.630Z,13.65
2018-05-10T17:41:08.672Z,13.78
2018-05-10T17:43:37.709Z,13.82
2018-05-10T17:46:03.638Z,14.00
2018-05-10T17:48:29.660Z,13.95
2018-05-10T17:50:55.662Z,13.91
2018-05-10T17:53:21.601Z,13.94
2018-05-10T17:55:48.911Z,13.93
2018-05-10T17:58:14.838Z,13.94
2018-05-10T18:00:44.552Z,13.97
2018-05-10T18:03:10.516Z,13.98
2018-05-10T18:05:39.752Z,13.96
2018-05-10T18:08:05.693Z,13.96
2018-05-10T18:10:34.688Z,13.88
2018-05-10T18:13:00.644Z,13.89
2018-05-10T18:15:27.571Z,13.88
2018-05-10T18:18:01.991Z,13.91
2018-05-10T18:20:27.930Z,13.83
2018-05-10T18:22:53.885Z,13.90
2018-05-10T18:25:19.824Z,13.97
2018-05-10T18:27:45.748Z,13.97
2018-05-10T18:30:11.708Z,13.87
2018-05-10T18:32:37.640Z,13.85
2018-05-10T18:35:03.620Z,13.96
2018-05-10T18:37:29.692Z,13.94
2018-05-10T18:39:55.702Z,14.00
2018-05-10T18:42:28.687Z,14.11
2018-05-10T18:44:54.708Z,14.11
2018-05-10T18:47:21.169Z,14.13
2018-05-10T18:49:48.149Z,14.08
2018-05-10T18:52:14.167Z,14.03
2018-05-10T18:54:40.193Z,14.01
2018-05-10T18:57:07.622Z,14.14
2018-05-10T18:59:33.882Z,14.17
2018-05-10T19:02:00.011Z,14.16
2018-05-10T19:04:26.106Z,14.13
2018-05-10T19:06:52.103Z,14.08
2018-05-10T19:09:21.183Z,14.15
2018-05-10T19:11:47.107Z,14.17
2018-05-10T19:14:15.545Z,14.01
2018-05-10T19:16:41.573Z,14.09
2018-05-10T19:19:09.528Z,14.13
2018-05-10T19:21:38.989Z,14.24
2018-05-10T19:24:05.103Z,14.31
2018-05-10T19:26:31.151Z,14.37
2018-05-10T19:28:58.158Z,14.45
2018-05-10T19:31:24.089Z,14.52
2018-05-10T19:33:53.298Z,14.59
2018-05-10T19:36:19.214Z,14.54
2018-05-10T19:38:45.282Z,14.53
2018-05-10T19:41:11.287Z,14.43
2018-05-10T19:43:37.279Z,14.37
2018-05-10T19:46:05.392Z,14.42
2018-05-10T19:48:32.041Z,14.50
2018-05-10T19:50:59.392Z,14.54
2018-05-10T19:53:25.345Z,14.61
2018-05-10T19:55:54.562Z,14.56
2018-05-10T19:58:20.532Z,14.57
2018-05-10T20:00:49.984Z,14.59
2018-05-10T20:03:16.012Z,14.64
2018-05-10T20:05:45.279Z,14.58
2018-05-10T20:08:11.631Z,14.53
2018-05-10T20:10:39.134Z,14.54
2018-05-10T20:13:07.130Z,14.53
2018-05-10T20:15:33.126Z,14.52
2018-05-10T20:17:59.093Z,14.49
2018-05-10T20:20:25.045Z,14.58
2018-05-10T20:22:51.144Z,14.66
2018-05-10T20:25:17.240Z,14.68
2018-05-10T20:27:44.893Z,14.67
2018-05-10T20:30:10.941Z,14.55
2018-05-10T20:32:39.285Z,14.65
2018-05-10T20:35:05.310Z,14.57
2018-05-10T20:37:34.594Z,14.59
2018-05-10T20:40:01.018Z,14.61
2018-05-10T20:42:30.511Z,14.61
2018-05-10T20:44:56.447Z,14.68
2018-05-10T20:47:23.983Z,14.59
2018-05-10T20:49:49.897Z,14.62
2018-05-10T20:52:15.967Z,14.56
2018-05-10T20:54:41.992Z,14.39
2018-05-10T20:57:07.915Z,14.30
2018-05-10T20:59:35.606Z,14.25
2018-05-10T21:02:01.555Z,14.16
2018-05-10T21:04:30.800Z,14.12
2018-05-10T21:06:56.763Z,14.17
2018-05-10T21:09:25.787Z,14.18
2018-05-10T21:11:51.744Z,14.06
2018-05-10T21:14:19.323Z,14.01
2018-05-10T21:16:45.299Z,14.09
2018-05-10T21:19:14.413Z,14.14
2018-05-10T21:21:40.361Z,14.20
2018-05-10T21:24:09.900Z,14.09
2018-05-10T21:26:35.843Z,14.07
2018-05-10T21:29:01.838Z,14.16
2018-05-10T21:31:27.763Z,14.22
2018-05-10T21:33:53.715Z,14.16
2018-05-10T21:36:20.614Z,14.09
2018-05-10T21:38:46.594Z,14.11
2018-05-10T21:41:17.687Z,14.08
2018-05-10T21:43:43.842Z,14.08
2018-05-10T21:46:09.847Z,14.12
2018-05-10T21:48:35.829Z,14.04
2018-05-10T21:51:04.806Z,13.91
2018-05-10T21:53:30.797Z,13.85
2018-05-10T21:55:59.635Z,13.91
2018-05-10T21:58:25.568Z,13.67
2018-05-10T22:00:54.410Z,13.21
2018-05-10T22:03:20.374Z,13.57
2018-05-10T22:05:54.330Z,13.62
2018-05-10T22:08:20.786Z,13.57
2018-05-10T22:10:46.939Z,13.64
2018-05-10T22:13:12.904Z,13.63
2018-05-10T22:15:38.878Z,13.61
2018-05-10T22:18:04.856Z,13.63
2018-05-10T22:20:30.796Z,13.63
2018-05-10T22:22:56.739Z,13.53
2018-05-10T22:25:22.669Z,13.60
2018-05-10T22:27:52.173Z,13.57
2018-05-10T22:30:18.140Z,13.49
2018-05-10T22:32:45.225Z,13.50
2018-05-10T22:35:11.220Z,13.51
2018-05-10T22:37:40.805Z,13.39
2018-05-10T22:40:06.769Z,13.35
2018-05-10T22:42:32.730Z,13.30
2018-05-10T22:44:58.661Z,13.28
2018-05-10T22:47:24.610Z,13.26
2018-05-10T22:49:52.288Z,13.28
2018-05-10T22:52:18.251Z,13.23
2018-05-10T22:54:47.360Z,13.16
2018-05-10T22:57:13.316Z,13.14
2018-05-10T22:59:40.502Z,13.10
2018-05-10T23:02:06.445Z,13.11
2018-05-10T23:04:35.378Z,13.01
2018-05-10T23:07:01.307Z,13.04
2018-05-10T23:09:30.107Z,12.97
2018-05-10T23:11:56.938Z,12.95
2018-05-10T23:14:26.394Z,12.98
2018-05-10T23:16:52.317Z,12.96
2018-05-10T23:19:18.295Z,12.92
2018-05-10T23:21:44.246Z,12.88
2018-05-10T23:24:10.216Z,12.89
2018-05-10T23:26:36.839Z,12.92
2018-05-10T23:29:02.812Z,12.88
2018-05-10T23:31:32.821Z,12.77
2018-05-10T23:33:58.844Z,12.78
2018-05-10T23:36:26.524Z,12.79
2018-05-10T23:38:52.496Z,12.71
2018-05-10T23:41:20.507Z,12.66
2018-05-10T23:43:46.469Z,12.75
2018-05-10T23:46:15.415Z,12.78
2018-05-10T23:48:41.387Z,12.76
2018-05-10T23:51:10.376Z,12.53
2018-05-10T23:53:36.354Z,12.86
2018-05-10T23:56:02.284Z,12.87
2018-05-10T23:58:28.223Z,12.89
